sensor_id;sensor_type;location;lat;lon;timestamp;P1;durP1;ratioP1;P2;durP2;ratioP2
70071;SDS011;57434;42.794;23.302;2023-03-03T00:00:56;7.28;;;2.53;;
70071;SDS011;57434;42.794;23.302;2023-03-03T00:01:57;5.72;;;2.20;;
70071;SDS011;57434;42.794;23.302;2023-03-03T00:03:00;7.43;;;2.17;;
70071;SDS011;57434;42.794;23.302;2023-03-03T00:04:06;5.32;;;1.80;;
70071;SDS011;57434;42.794;23.302;2023-03-03T00:05:08;5.70;;;2.10;;
70071;SDS011;57434;42.794;23.302;2023-03-03T00:06:11;5.60;;;1.63;;
70071;SDS011;57434;42.794;23.302;2023-03-03T00:07:14;6.20;;;1.90;;
70071;SDS011;57434;42.794;23.302;2023-03-03T00:08:16;7.10;;;2.03;;
70071;SDS011;57434;42.794;23.302;2023-03-03T00:09:19;6.18;;;2.08;;
70071;SDS011;57434;42.794;23.302;2023-03-03T00:10:21;5.40;;;2.08;;
70071;SDS011;57434;42.794;23.302;2023-03-03T00:11:23;5.13;;;1.92;;
70071;SDS011;57434;42.794;23.302;2023-03-03T00:12:26;5.38;;;1.88;;
70071;SDS011;57434;42.794;23.302;2023-03-03T00:13:30;7.40;;;2.17;;
70071;SDS011;57434;42.794;23.302;2023-03-03T00:14:33;5.88;;;1.92;;
70071;SDS011;57434;42.794;23.302;2023-03-03T00:15:34;5.93;;;1.88;;
70071;SDS011;57434;42.794;23.302;2023-03-03T00:16:36;7.07;;;2.42;;
70071;SDS011;57434;42.794;23.302;2023-03-03T00:17:39;5.63;;;1.77;;
70071;SDS011;57434;42.794;23.302;2023-03-03T00:18:41;5.23;;;2.00;;
70071;SDS011;57434;42.794;23.302;2023-03-03T00:19:48;6.70;;;2.15;;
70071;SDS011;57434;42.794;23.302;2023-03-03T00:20:54;7.22;;;2.67;;
70071;SDS011;57434;42.794;23.302;2023-03-03T00:21:58;6.75;;;2.03;;
70071;SDS011;57434;42.794;23.302;2023-03-03T00:23:04;5.05;;;1.90;;
70071;SDS011;57434;42.794;23.302;2023-03-03T00:25:30;5.80;;;2.03;;
70071;SDS011;57434;42.794;23.302;2023-03-03T00:26:34;6.75;;;2.30;;
70071;SDS011;57434;42.794;23.302;2023-03-03T00:27:37;5.68;;;2.20;;
70071;SDS011;57434;42.794;23.302;2023-03-03T00:28:46;7.78;;;2.50;;
70071;SDS011;57434;42.794;23.302;2023-03-03T00:29:52;5.43;;;2.10;;
70071;SDS011;57434;42.794;23.302;2023-03-03T00:30:57;5.60;;;1.98;;
70071;SDS011;57434;42.794;23.302;2023-03-03T00:33:26;6.00;;;2.17;;
70071;SDS011;57434;42.794;23.302;2023-03-03T00:34:28;5.72;;;1.85;;
70071;SDS011;57434;42.794;23.302;2023-03-03T00:35:31;6.65;;;2.25;;
70071;SDS011;57434;42.794;23.302;2023-03-03T00:36:35;5.80;;;1.92;;
70071;SDS011;57434;42.794;23.302;2023-03-03T00:37:38;6.43;;;2.15;;
70071;SDS011;57434;42.794;23.302;2023-03-03T00:38:41;6.57;;;2.42;;
70071;SDS011;57434;42.794;23.302;2023-03-03T00:39:43;6.55;;;2.03;;
70071;SDS011;57434;42.794;23.302;2023-03-03T00:40:46;5.50;;;1.83;;
70071;SDS011;57434;42.794;23.302;2023-03-03T00:41:48;6.38;;;2.30;;
70071;SDS011;57434;42.794;23.302;2023-03-03T00:42:54;5.97;;;2.10;;
70071;SDS011;57434;42.794;23.302;2023-03-03T00:43:58;8.02;;;2.80;;
70071;SDS011;57434;42.794;23.302;2023-03-03T00:44:59;7.90;;;2.90;;
70071;SDS011;57434;42.794;23.302;2023-03-03T00:46:01;8.07;;;3.17;;
70071;SDS011;57434;42.794;23.302;2023-03-03T00:49:38;6.55;;;2.67;;
70071;SDS011;57434;42.794;23.302;2023-03-03T00:50:40;6.07;;;2.05;;
70071;SDS011;57434;42.794;23.302;2023-03-03T00:51:44;8.73;;;2.50;;
70071;SDS011;57434;42.794;23.302;2023-03-03T00:53:31;6.60;;;2.60;;
70071;SDS011;57434;42.794;23.302;2023-03-03T00:54:12;6.22;;;2.58;;
70071;SDS011;57434;42.794;23.302;2023-03-03T00:55:13;6.28;;;2.50;;
70071;SDS011;57434;42.794;23.302;2023-03-03T00:56:15;6.72;;;2.45;;
70071;SDS011;57434;42.794;23.302;2023-03-03T00:57:17;6.47;;;2.38;;
70071;SDS011;57434;42.794;23.302;2023-03-03T00:58:19;6.80;;;2.53;;
70071;SDS011;57434;42.794;23.302;2023-03-03T00:59:21;6.85;;;2.25;;
70071;SDS011;57434;42.794;23.302;2023-03-03T01:00:23;5.65;;;2.13;;
70071;SDS011;57434;42.794;23.302;2023-03-03T01:01:25;5.10;;;1.80;;
70071;SDS011;57434;42.794;23.302;2023-03-03T01:02:27;8.13;;;2.60;;
70071;SDS011;57434;42.794;23.302;2023-03-03T01:03:29;5.63;;;2.33;;
70071;SDS011;57434;42.794;23.302;2023-03-03T01:04:31;9.00;;;2.80;;
70071;SDS011;57434;42.794;23.302;2023-03-03T01:05:33;8.68;;;2.88;;
70071;SDS011;57434;42.794;23.302;2023-03-03T01:06:35;6.75;;;2.53;;
70071;SDS011;57434;42.794;23.302;2023-03-03T01:07:37;8.38;;;2.70;;
70071;SDS011;57434;42.794;23.302;2023-03-03T01:08:38;8.38;;;2.85;;
70071;SDS011;57434;42.794;23.302;2023-03-03T01:09:40;9.35;;;3.10;;
70071;SDS011;57434;42.794;23.302;2023-03-03T01:10:46;6.45;;;2.65;;
70071;SDS011;57434;42.794;23.302;2023-03-03T01:11:50;6.47;;;2.40;;
70071;SDS011;57434;42.794;23.302;2023-03-03T01:12:53;7.73;;;2.57;;
70071;SDS011;57434;42.794;23.302;2023-03-03T01:13:55;6.18;;;2.40;;
70071;SDS011;57434;42.794;23.302;2023-03-03T01:14:57;6.63;;;2.15;;
70071;SDS011;57434;42.794;23.302;2023-03-03T01:15:59;6.32;;;2.45;;
70071;SDS011;57434;42.794;23.302;2023-03-03T01:17:02;8.30;;;3.40;;
70071;SDS011;57434;42.794;23.302;2023-03-03T01:18:05;8.00;;;2.70;;
70071;SDS011;57434;42.794;23.302;2023-03-03T01:19:07;7.22;;;2.60;;
70071;SDS011;57434;42.794;23.302;2023-03-03T01:20:11;8.77;;;3.45;;
70071;SDS011;57434;42.794;23.302;2023-03-03T01:21:16;7.82;;;2.95;;
70071;SDS011;57434;42.794;23.302;2023-03-03T01:22:18;8.13;;;2.90;;
70071;SDS011;57434;42.794;23.302;2023-03-03T01:23:20;8.67;;;3.33;;
70071;SDS011;57434;42.794;23.302;2023-03-03T01:24:22;7.35;;;2.63;;
70071;SDS011;57434;42.794;23.302;2023-03-03T01:25:24;7.45;;;2.88;;
70071;SDS011;57434;42.794;23.302;2023-03-03T01:26:26;6.82;;;2.78;;
70071;SDS011;57434;42.794;23.302;2023-03-03T01:27:28;9.05;;;3.30;;
70071;SDS011;57434;42.794;23.302;2023-03-03T01:28:31;10.00;;;2.83;;
70071;SDS011;57434;42.794;23.302;2023-03-03T01:29:33;7.50;;;2.92;;
70071;SDS011;57434;42.794;23.302;2023-03-03T01:30:35;6.75;;;3.03;;
70071;SDS011;57434;42.794;23.302;2023-03-03T01:31:37;7.45;;;2.47;;
70071;SDS011;57434;42.794;23.302;2023-03-03T01:32:39;8.07;;;3.10;;
70071;SDS011;57434;42.794;23.302;2023-03-03T01:33:41;7.77;;;2.43;;
70071;SDS011;57434;42.794;23.302;2023-03-03T01:34:43;8.45;;;2.70;;
70071;SDS011;57434;42.794;23.302;2023-03-03T01:35:45;6.18;;;2.58;;
70071;SDS011;57434;42.794;23.302;2023-03-03T01:36:48;7.25;;;2.45;;
70071;SDS011;57434;42.794;23.302;2023-03-03T01:37:49;8.35;;;2.72;;
70071;SDS011;57434;42.794;23.302;2023-03-03T01:38:51;6.47;;;2.42;;
70071;SDS011;57434;42.794;23.302;2023-03-03T01:39:54;5.78;;;2.45;;
70071;SDS011;57434;42.794;23.302;2023-03-03T01:40:56;7.40;;;2.40;;
70071;SDS011;57434;42.794;23.302;2023-03-03T01:41:59;7.32;;;2.28;;
70071;SDS011;57434;42.794;23.302;2023-03-03T01:43:04;5.63;;;2.03;;
70071;SDS011;57434;42.794;23.302;2023-03-03T01:44:06;7.40;;;3.03;;
70071;SDS011;57434;42.794;23.302;2023-03-03T01:45:13;6.97;;;2.42;;
70071;SDS011;57434;42.794;23.302;2023-03-03T01:47:27;7.03;;;2.28;;
70071;SDS011;57434;42.794;23.302;2023-03-03T01:48:35;6.50;;;2.13;;
70071;SDS011;57434;42.794;23.302;2023-03-03T01:52:25;5.43;;;1.88;;
70071;SDS011;57434;42.794;23.302;2023-03-03T01:53:36;6.43;;;2.50;;
70071;SDS011;57434;42.794;23.302;2023-03-03T01:54:43;6.55;;;2.42;;
70071;SDS011;57434;42.794;23.302;2023-03-03T01:55:50;5.80;;;2.10;;
70071;SDS011;57434;42.794;23.302;2023-03-03T01:56:54;6.93;;;3.00;;
70071;SDS011;57434;42.794;23.302;2023-03-03T01:58:06;10.30;;;3.30;;
70071;SDS011;57434;42.794;23.302;2023-03-03T01:59:19;10.90;;;3.58;;
70071;SDS011;57434;42.794;23.302;2023-03-03T02:00:24;7.40;;;3.05;;
70071;SDS011;57434;42.794;23.302;2023-03-03T02:01:28;7.30;;;2.50;;
70071;SDS011;57434;42.794;23.302;2023-03-03T02:02:33;7.60;;;2.60;;
70071;SDS011;57434;42.794;23.302;2023-03-03T02:03:36;6.15;;;2.33;;
70071;SDS011;57434;42.794;23.302;2023-03-03T02:04:38;6.43;;;2.80;;
70071;SDS011;57434;42.794;23.302;2023-03-03T02:07:42;7.87;;;3.07;;
70071;SDS011;57434;42.794;23.302;2023-03-03T02:09:57;6.35;;;2.58;;
70071;SDS011;57434;42.794;23.302;2023-03-03T02:11:06;7.97;;;2.58;;
70071;SDS011;57434;42.794;23.302;2023-03-03T02:12:10;7.20;;;2.28;;
70071;SDS011;57434;42.794;23.302;2023-03-03T02:13:14;7.80;;;2.92;;
70071;SDS011;57434;42.794;23.302;2023-03-03T02:14:17;9.48;;;3.50;;
70071;SDS011;57434;42.794;23.302;2023-03-03T02:16:20;9.80;;;3.55;;
70071;SDS011;57434;42.794;23.302;2023-03-03T02:17:22;9.20;;;3.25;;
70071;SDS011;57434;42.794;23.302;2023-03-03T02:18:25;11.07;;;3.77;;
70071;SDS011;57434;42.794;23.302;2023-03-03T02:19:33;11.70;;;3.85;;
70071;SDS011;57434;42.794;23.302;2023-03-03T02:22:02;7.50;;;3.10;;
70071;SDS011;57434;42.794;23.302;2023-03-03T02:23:21;11.93;;;5.82;;
70071;SDS011;57434;42.794;23.302;2023-03-03T02:24:50;8.50;;;3.65;;
70071;SDS011;57434;42.794;23.302;2023-03-03T02:26:01;9.95;;;4.10;;
70071;SDS011;57434;42.794;23.302;2023-03-03T02:27:03;9.70;;;4.38;;
70071;SDS011;57434;42.794;23.302;2023-03-03T02:28:05;9.73;;;4.00;;
70071;SDS011;57434;42.794;23.302;2023-03-03T02:29:07;11.93;;;4.25;;
70071;SDS011;57434;42.794;23.302;2023-03-03T02:30:14;11.80;;;4.77;;
70071;SDS011;57434;42.794;23.302;2023-03-03T02:31:20;9.88;;;4.03;;
70071;SDS011;57434;42.794;23.302;2023-03-03T02:32:24;14.50;;;3.80;;
70071;SDS011;57434;42.794;23.302;2023-03-03T02:33:26;10.65;;;4.85;;
70071;SDS011;57434;42.794;23.302;2023-03-03T02:34:29;15.07;;;4.57;;
70071;SDS011;57434;42.794;23.302;2023-03-03T02:35:32;18.13;;;5.53;;
70071;SDS011;57434;42.794;23.302;2023-03-03T02:36:38;10.32;;;3.85;;
70071;SDS011;57434;42.794;23.302;2023-03-03T02:37:40;9.95;;;4.07;;
70071;SDS011;57434;42.794;23.302;2023-03-03T02:38:50;28.17;;;7.65;;
70071;SDS011;57434;42.794;23.302;2023-03-03T02:39:55;11.88;;;4.78;;
70071;SDS011;57434;42.794;23.302;2023-03-03T02:42:24;14.90;;;5.28;;
70071;SDS011;57434;42.794;23.302;2023-03-03T02:43:35;11.32;;;4.15;;
70071;SDS011;57434;42.794;23.302;2023-03-03T02:44:57;13.27;;;5.15;;
70071;SDS011;57434;42.794;23.302;2023-03-03T02:45:59;15.27;;;4.65;;
70071;SDS011;57434;42.794;23.302;2023-03-03T02:47:00;12.88;;;3.97;;
70071;SDS011;57434;42.794;23.302;2023-03-03T02:48:02;20.35;;;7.63;;
70071;SDS011;57434;42.794;23.302;2023-03-03T02:49:05;31.52;;;8.20;;
70071;SDS011;57434;42.794;23.302;2023-03-03T02:50:09;22.73;;;7.63;;
70071;SDS011;57434;42.794;23.302;2023-03-03T02:51:11;26.83;;;7.95;;
70071;SDS011;57434;42.794;23.302;2023-03-03T02:52:13;22.27;;;6.80;;
70071;SDS011;57434;42.794;23.302;2023-03-03T02:53:15;14.32;;;4.70;;
70071;SDS011;57434;42.794;23.302;2023-03-03T02:54:17;14.93;;;6.10;;
70071;SDS011;57434;42.794;23.302;2023-03-03T02:55:21;12.88;;;4.32;;
70071;SDS011;57434;42.794;23.302;2023-03-03T02:56:22;12.10;;;4.43;;
70071;SDS011;57434;42.794;23.302;2023-03-03T02:57:24;10.02;;;3.30;;
70071;SDS011;57434;42.794;23.302;2023-03-03T02:58:26;11.52;;;4.78;;
70071;SDS011;57434;42.794;23.302;2023-03-03T02:59:28;12.00;;;4.80;;
70071;SDS011;57434;42.794;23.302;2023-03-03T03:00:30;13.32;;;5.15;;
70071;SDS011;57434;42.794;23.302;2023-03-03T03:01:32;14.40;;;6.13;;
70071;SDS011;57434;42.794;23.302;2023-03-03T03:02:36;13.20;;;5.90;;
70071;SDS011;57434;42.794;23.302;2023-03-03T03:03:38;15.55;;;5.57;;
70071;SDS011;57434;42.794;23.302;2023-03-03T03:04:40;10.40;;;5.35;;
70071;SDS011;57434;42.794;23.302;2023-03-03T03:05:42;12.57;;;4.85;;
70071;SDS011;57434;42.794;23.302;2023-03-03T03:06:44;13.27;;;4.60;;
70071;SDS011;57434;42.794;23.302;2023-03-03T03:07:47;10.63;;;4.53;;
70071;SDS011;57434;42.794;23.302;2023-03-03T03:08:49;9.10;;;3.80;;
70071;SDS011;57434;42.794;23.302;2023-03-03T03:09:51;9.52;;;3.92;;
70071;SDS011;57434;42.794;23.302;2023-03-03T03:10:53;10.20;;;3.83;;
70071;SDS011;57434;42.794;23.302;2023-03-03T03:11:55;11.30;;;3.90;;
70071;SDS011;57434;42.794;23.302;2023-03-03T03:12:57;9.00;;;4.00;;
70071;SDS011;57434;42.794;23.302;2023-03-03T03:13:58;11.90;;;3.95;;
70071;SDS011;57434;42.794;23.302;2023-03-03T03:15:00;10.23;;;3.80;;
70071;SDS011;57434;42.794;23.302;2023-03-03T03:16:02;9.93;;;3.70;;
70071;SDS011;57434;42.794;23.302;2023-03-03T03:17:04;8.68;;;2.85;;
70071;SDS011;57434;42.794;23.302;2023-03-03T03:18:06;8.57;;;3.83;;
70071;SDS011;57434;42.794;23.302;2023-03-03T03:19:07;7.38;;;3.50;;
70071;SDS011;57434;42.794;23.302;2023-03-03T03:20:10;8.13;;;3.42;;
70071;SDS011;57434;42.794;23.302;2023-03-03T03:21:12;8.00;;;3.47;;
70071;SDS011;57434;42.794;23.302;2023-03-03T03:22:14;7.80;;;3.17;;
70071;SDS011;57434;42.794;23.302;2023-03-03T03:23:16;8.63;;;3.73;;
70071;SDS011;57434;42.794;23.302;2023-03-03T03:24:18;7.50;;;3.05;;
70071;SDS011;57434;42.794;23.302;2023-03-03T03:25:20;8.30;;;2.92;;
70071;SDS011;57434;42.794;23.302;2023-03-03T03:26:21;9.02;;;3.65;;
70071;SDS011;57434;42.794;23.302;2023-03-03T03:27:23;7.88;;;3.35;;
70071;SDS011;57434;42.794;23.302;2023-03-03T03:28:25;7.50;;;2.67;;
70071;SDS011;57434;42.794;23.302;2023-03-03T03:29:27;7.80;;;3.25;;
70071;SDS011;57434;42.794;23.302;2023-03-03T03:30:29;9.20;;;3.45;;
70071;SDS011;57434;42.794;23.302;2023-03-03T03:31:31;6.78;;;3.15;;
70071;SDS011;57434;42.794;23.302;2023-03-03T03:32:33;9.23;;;3.50;;
70071;SDS011;57434;42.794;23.302;2023-03-03T03:33:35;8.03;;;3.13;;
70071;SDS011;57434;42.794;23.302;2023-03-03T03:34:37;9.23;;;3.50;;
70071;SDS011;57434;42.794;23.302;2023-03-03T03:35:38;9.98;;;4.07;;
70071;SDS011;57434;42.794;23.302;2023-03-03T03:36:40;8.00;;;3.08;;
70071;SDS011;57434;42.794;23.302;2023-03-03T03:37:42;16.00;;;3.88;;
70071;SDS011;57434;42.794;23.302;2023-03-03T03:38:44;11.18;;;3.75;;
70071;SDS011;57434;42.794;23.302;2023-03-03T03:39:46;8.35;;;3.63;;
70071;SDS011;57434;42.794;23.302;2023-03-03T03:40:48;9.30;;;3.72;;
70071;SDS011;57434;42.794;23.302;2023-03-03T03:41:50;9.15;;;4.00;;
70071;SDS011;57434;42.794;23.302;2023-03-03T03:42:52;9.07;;;4.13;;
70071;SDS011;57434;42.794;23.302;2023-03-03T03:43:55;8.63;;;4.33;;
70071;SDS011;57434;42.794;23.302;2023-03-03T03:44:56;8.23;;;3.97;;
70071;SDS011;57434;42.794;23.302;2023-03-03T03:45:58;9.35;;;4.13;;
70071;SDS011;57434;42.794;23.302;2023-03-03T03:47:00;9.98;;;4.00;;
70071;SDS011;57434;42.794;23.302;2023-03-03T03:48:02;7.97;;;3.42;;
70071;SDS011;57434;42.794;23.302;2023-03-03T03:49:04;8.55;;;3.33;;
70071;SDS011;57434;42.794;23.302;2023-03-03T03:50:05;8.30;;;3.55;;
70071;SDS011;57434;42.794;23.302;2023-03-03T03:51:09;8.40;;;3.47;;
70071;SDS011;57434;42.794;23.302;2023-03-03T03:52:12;8.02;;;3.88;;
70071;SDS011;57434;42.794;23.302;2023-03-03T03:53:14;9.65;;;4.20;;
70071;SDS011;57434;42.794;23.302;2023-03-03T03:54:16;9.33;;;4.20;;
70071;SDS011;57434;42.794;23.302;2023-03-03T03:55:18;10.57;;;3.97;;
70071;SDS011;57434;42.794;23.302;2023-03-03T03:56:19;11.63;;;4.05;;
70071;SDS011;57434;42.794;23.302;2023-03-03T03:57:21;9.13;;;4.00;;
70071;SDS011;57434;42.794;23.302;2023-03-03T03:58:26;8.82;;;3.90;;
70071;SDS011;57434;42.794;23.302;2023-03-03T03:59:28;12.45;;;4.35;;
70071;SDS011;57434;42.794;23.302;2023-03-03T04:00:30;9.63;;;4.20;;
70071;SDS011;57434;42.794;23.302;2023-03-03T04:01:32;9.48;;;3.63;;
70071;SDS011;57434;42.794;23.302;2023-03-03T04:02:34;8.20;;;3.53;;
70071;SDS011;57434;42.794;23.302;2023-03-03T04:03:37;11.20;;;3.90;;
70071;SDS011;57434;42.794;23.302;2023-03-03T04:04:38;8.47;;;4.07;;
70071;SDS011;57434;42.794;23.302;2023-03-03T04:05:40;11.88;;;4.20;;
70071;SDS011;57434;42.794;23.302;2023-03-03T04:06:42;9.32;;;3.95;;
70071;SDS011;57434;42.794;23.302;2023-03-03T04:07:44;11.30;;;4.43;;
70071;SDS011;57434;42.794;23.302;2023-03-03T04:08:46;9.30;;;3.65;;
70071;SDS011;57434;42.794;23.302;2023-03-03T04:09:48;9.10;;;4.30;;
70071;SDS011;57434;42.794;23.302;2023-03-03T04:10:50;11.32;;;4.03;;
70071;SDS011;57434;42.794;23.302;2023-03-03T04:11:51;12.20;;;4.60;;
70071;SDS011;57434;42.794;23.302;2023-03-03T04:12:53;10.13;;;4.45;;
70071;SDS011;57434;42.794;23.302;2023-03-03T04:13:55;10.43;;;4.00;;
70071;SDS011;57434;42.794;23.302;2023-03-03T04:14:57;10.13;;;4.33;;
70071;SDS011;57434;42.794;23.302;2023-03-03T04:15:59;9.68;;;4.05;;
70071;SDS011;57434;42.794;23.302;2023-03-03T04:17:01;9.30;;;3.72;;
70071;SDS011;57434;42.794;23.302;2023-03-03T04:18:03;10.43;;;4.13;;
70071;SDS011;57434;42.794;23.302;2023-03-03T04:19:05;10.10;;;4.22;;
70071;SDS011;57434;42.794;23.302;2023-03-03T04:20:07;9.68;;;3.80;;
70071;SDS011;57434;42.794;23.302;2023-03-03T04:21:11;10.05;;;4.18;;
70071;SDS011;57434;42.794;23.302;2023-03-03T04:22:14;9.48;;;3.95;;
70071;SDS011;57434;42.794;23.302;2023-03-03T04:23:15;10.57;;;3.97;;
70071;SDS011;57434;42.794;23.302;2023-03-03T04:24:17;8.02;;;3.90;;
70071;SDS011;57434;42.794;23.302;2023-03-03T04:25:19;10.07;;;4.20;;
70071;SDS011;57434;42.794;23.302;2023-03-03T04:26:21;10.60;;;4.03;;
70071;SDS011;57434;42.794;23.302;2023-03-03T04:27:22;12.80;;;5.72;;
70071;SDS011;57434;42.794;23.302;2023-03-03T04:28:24;11.07;;;4.78;;
70071;SDS011;57434;42.794;23.302;2023-03-03T04:29:26;10.95;;;5.50;;
70071;SDS011;57434;42.794;23.302;2023-03-03T04:30:27;9.85;;;4.20;;
70071;SDS011;57434;42.794;23.302;2023-03-03T04:31:29;11.15;;;4.30;;
70071;SDS011;57434;42.794;23.302;2023-03-03T04:32:32;13.00;;;5.88;;
70071;SDS011;57434;42.794;23.302;2023-03-03T04:33:34;13.55;;;5.82;;
70071;SDS011;57434;42.794;23.302;2023-03-03T04:34:36;10.00;;;4.22;;
70071;SDS011;57434;42.794;23.302;2023-03-03T04:35:37;13.03;;;4.77;;
70071;SDS011;57434;42.794;23.302;2023-03-03T04:36:39;14.23;;;5.70;;
70071;SDS011;57434;42.794;23.302;2023-03-03T04:37:41;11.50;;;5.05;;
70071;SDS011;57434;42.794;23.302;2023-03-03T04:38:43;10.93;;;4.40;;
70071;SDS011;57434;42.794;23.302;2023-03-03T04:39:44;11.25;;;4.40;;
70071;SDS011;57434;42.794;23.302;2023-03-03T04:40:46;10.38;;;3.95;;
70071;SDS011;57434;42.794;23.302;2023-03-03T04:41:48;12.07;;;5.00;;
70071;SDS011;57434;42.794;23.302;2023-03-03T04:42:50;12.40;;;5.10;;
70071;SDS011;57434;42.794;23.302;2023-03-03T04:43:52;10.40;;;4.70;;
70071;SDS011;57434;42.794;23.302;2023-03-03T04:44:54;12.13;;;5.47;;
70071;SDS011;57434;42.794;23.302;2023-03-03T04:45:56;12.87;;;4.77;;
70071;SDS011;57434;42.794;23.302;2023-03-03T04:46:58;12.25;;;5.13;;
70071;SDS011;57434;42.794;23.302;2023-03-03T04:47:59;12.48;;;5.53;;
70071;SDS011;57434;42.794;23.302;2023-03-03T04:49:01;13.05;;;5.72;;
70071;SDS011;57434;42.794;23.302;2023-03-03T04:50:03;11.73;;;4.63;;
70071;SDS011;57434;42.794;23.302;2023-03-03T04:51:05;11.75;;;4.38;;
70071;SDS011;57434;42.794;23.302;2023-03-03T04:52:07;12.15;;;5.13;;
70071;SDS011;57434;42.794;23.302;2023-03-03T04:53:09;13.20;;;5.30;;
70071;SDS011;57434;42.794;23.302;2023-03-03T04:54:11;12.80;;;5.60;;
70071;SDS011;57434;42.794;23.302;2023-03-03T04:55:13;12.93;;;4.97;;
70071;SDS011;57434;42.794;23.302;2023-03-03T04:56:15;11.90;;;5.30;;
70071;SDS011;57434;42.794;23.302;2023-03-03T04:57:17;11.68;;;4.88;;
70071;SDS011;57434;42.794;23.302;2023-03-03T04:58:19;11.40;;;4.68;;
70071;SDS011;57434;42.794;23.302;2023-03-03T04:59:21;11.43;;;4.70;;
70071;SDS011;57434;42.794;23.302;2023-03-03T05:00:23;11.82;;;4.72;;
70071;SDS011;57434;42.794;23.302;2023-03-03T05:01:24;12.27;;;5.43;;
70071;SDS011;57434;42.794;23.302;2023-03-03T05:02:26;11.88;;;5.47;;
70071;SDS011;57434;42.794;23.302;2023-03-03T05:03:28;11.65;;;5.93;;
70071;SDS011;57434;42.794;23.302;2023-03-03T05:04:30;12.40;;;5.75;;
70071;SDS011;57434;42.794;23.302;2023-03-03T05:05:32;12.98;;;5.15;;
70071;SDS011;57434;42.794;23.302;2023-03-03T05:06:33;11.93;;;5.10;;
70071;SDS011;57434;42.794;23.302;2023-03-03T05:07:35;11.85;;;5.15;;
70071;SDS011;57434;42.794;23.302;2023-03-03T05:08:37;13.52;;;5.25;;
70071;SDS011;57434;42.794;23.302;2023-03-03T05:09:39;10.60;;;4.30;;
70071;SDS011;57434;42.794;23.302;2023-03-03T05:10:41;10.20;;;4.30;;
70071;SDS011;57434;42.794;23.302;2023-03-03T05:11:43;13.23;;;4.88;;
70071;SDS011;57434;42.794;23.302;2023-03-03T05:12:44;11.55;;;5.22;;
70071;SDS011;57434;42.794;23.302;2023-03-03T05:13:46;12.57;;;6.35;;
70071;SDS011;57434;42.794;23.302;2023-03-03T05:14:48;12.27;;;6.03;;
70071;SDS011;57434;42.794;23.302;2023-03-03T05:15:50;11.93;;;4.90;;
70071;SDS011;57434;42.794;23.302;2023-03-03T05:16:53;11.10;;;5.13;;
70071;SDS011;57434;42.794;23.302;2023-03-03T05:17:55;12.65;;;5.00;;
70071;SDS011;57434;42.794;23.302;2023-03-03T05:18:57;12.63;;;5.82;;
70071;SDS011;57434;42.794;23.302;2023-03-03T05:19:59;12.63;;;5.70;;
70071;SDS011;57434;42.794;23.302;2023-03-03T05:21:01;14.27;;;5.82;;
70071;SDS011;57434;42.794;23.302;2023-03-03T05:22:02;13.30;;;5.18;;
70071;SDS011;57434;42.794;23.302;2023-03-03T05:23:04;12.57;;;5.43;;
70071;SDS011;57434;42.794;23.302;2023-03-03T05:24:06;13.30;;;5.20;;
70071;SDS011;57434;42.794;23.302;2023-03-03T05:25:09;13.93;;;6.47;;
70071;SDS011;57434;42.794;23.302;2023-03-03T05:26:11;11.52;;;5.40;;
70071;SDS011;57434;42.794;23.302;2023-03-03T05:27:12;12.67;;;5.97;;
70071;SDS011;57434;42.794;23.302;2023-03-03T05:28:15;12.57;;;5.57;;
70071;SDS011;57434;42.794;23.302;2023-03-03T05:29:17;11.57;;;5.45;;
70071;SDS011;57434;42.794;23.302;2023-03-03T05:30:19;13.63;;;5.25;;
70071;SDS011;57434;42.794;23.302;2023-03-03T05:31:21;13.32;;;6.07;;
70071;SDS011;57434;42.794;23.302;2023-03-03T05:32:23;12.18;;;5.53;;
70071;SDS011;57434;42.794;23.302;2023-03-03T05:33:25;12.40;;;5.20;;
70071;SDS011;57434;42.794;23.302;2023-03-03T05:34:27;13.15;;;5.80;;
70071;SDS011;57434;42.794;23.302;2023-03-03T05:35:29;12.05;;;5.22;;
70071;SDS011;57434;42.794;23.302;2023-03-03T05:36:31;10.70;;;5.43;;
70071;SDS011;57434;42.794;23.302;2023-03-03T05:37:33;13.97;;;6.27;;
70071;SDS011;57434;42.794;23.302;2023-03-03T05:38:35;12.45;;;5.40;;
70071;SDS011;57434;42.794;23.302;2023-03-03T05:39:37;12.15;;;5.22;;
70071;SDS011;57434;42.794;23.302;2023-03-03T05:40:38;12.70;;;5.82;;
70071;SDS011;57434;42.794;23.302;2023-03-03T05:41:40;11.95;;;5.90;;
70071;SDS011;57434;42.794;23.302;2023-03-03T05:42:42;12.23;;;5.82;;
70071;SDS011;57434;42.794;23.302;2023-03-03T05:43:44;14.20;;;5.70;;
70071;SDS011;57434;42.794;23.302;2023-03-03T05:44:46;11.90;;;5.95;;
70071;SDS011;57434;42.794;23.302;2023-03-03T05:45:53;12.70;;;5.75;;
70071;SDS011;57434;42.794;23.302;2023-03-03T05:46:58;14.73;;;6.72;;
70071;SDS011;57434;42.794;23.302;2023-03-03T05:48:00;13.33;;;6.73;;
70071;SDS011;57434;42.794;23.302;2023-03-03T05:49:02;13.25;;;6.35;;
70071;SDS011;57434;42.794;23.302;2023-03-03T05:50:04;14.00;;;6.10;;
70071;SDS011;57434;42.794;23.302;2023-03-03T05:51:06;14.20;;;7.00;;
70071;SDS011;57434;42.794;23.302;2023-03-03T05:52:08;13.60;;;6.30;;
70071;SDS011;57434;42.794;23.302;2023-03-03T05:53:10;11.82;;;5.70;;
70071;SDS011;57434;42.794;23.302;2023-03-03T05:54:11;14.98;;;6.13;;
70071;SDS011;57434;42.794;23.302;2023-03-03T05:55:13;12.52;;;5.82;;
70071;SDS011;57434;42.794;23.302;2023-03-03T05:56:15;15.07;;;5.72;;
70071;SDS011;57434;42.794;23.302;2023-03-03T05:57:16;14.48;;;6.18;;
70071;SDS011;57434;42.794;23.302;2023-03-03T05:58:18;11.37;;;5.80;;
70071;SDS011;57434;42.794;23.302;2023-03-03T05:59:21;12.60;;;6.28;;
70071;SDS011;57434;42.794;23.302;2023-03-03T06:00:24;11.98;;;6.25;;
70071;SDS011;57434;42.794;23.302;2023-03-03T06:01:26;14.73;;;5.80;;
70071;SDS011;57434;42.794;23.302;2023-03-03T06:02:28;11.20;;;5.55;;
70071;SDS011;57434;42.794;23.302;2023-03-03T06:03:30;13.82;;;5.93;;
70071;SDS011;57434;42.794;23.302;2023-03-03T06:04:32;13.00;;;5.43;;
70071;SDS011;57434;42.794;23.302;2023-03-03T06:05:34;12.02;;;5.30;;
70071;SDS011;57434;42.794;23.302;2023-03-03T06:06:36;11.60;;;5.07;;
70071;SDS011;57434;42.794;23.302;2023-03-03T06:07:37;12.98;;;5.20;;
70071;SDS011;57434;42.794;23.302;2023-03-03T06:08:39;13.10;;;5.47;;
70071;SDS011;57434;42.794;23.302;2023-03-03T06:09:41;13.13;;;5.13;;
70071;SDS011;57434;42.794;23.302;2023-03-03T06:10:43;11.85;;;5.60;;
70071;SDS011;57434;42.794;23.302;2023-03-03T06:11:45;12.23;;;5.30;;
70071;SDS011;57434;42.794;23.302;2023-03-03T06:12:47;12.82;;;5.63;;
70071;SDS011;57434;42.794;23.302;2023-03-03T06:13:49;12.02;;;5.15;;
70071;SDS011;57434;42.794;23.302;2023-03-03T06:14:50;12.48;;;5.53;;
70071;SDS011;57434;42.794;23.302;2023-03-03T06:15:52;10.60;;;5.22;;
70071;SDS011;57434;42.794;23.302;2023-03-03T06:16:54;13.88;;;5.97;;
70071;SDS011;57434;42.794;23.302;2023-03-03T06:17:55;10.38;;;4.72;;
70071;SDS011;57434;42.794;23.302;2023-03-03T06:18:57;12.13;;;5.87;;
70071;SDS011;57434;42.794;23.302;2023-03-03T06:19:59;14.98;;;6.70;;
70071;SDS011;57434;42.794;23.302;2023-03-03T06:21:00;12.93;;;6.55;;
70071;SDS011;57434;42.794;23.302;2023-03-03T06:22:02;12.63;;;5.95;;
70071;SDS011;57434;42.794;23.302;2023-03-03T06:23:04;13.60;;;5.78;;
70071;SDS011;57434;42.794;23.302;2023-03-03T06:24:06;12.73;;;6.13;;
70071;SDS011;57434;42.794;23.302;2023-03-03T06:25:09;16.15;;;6.45;;
70071;SDS011;57434;42.794;23.302;2023-03-03T06:26:10;12.65;;;5.80;;
70071;SDS011;57434;42.794;23.302;2023-03-03T06:27:12;11.98;;;5.93;;